Time;durP1;ratioP1;P1;durP2;ratioP2;P2;SDS_P1;SDS_P2;PMS_P1;PMS_P2;Temp;Humidity;BMP_temperature;BMP_pressure;BME280_temperature;BME280_humidity;BME280_pressure;Samples;Min_cycle;Max_cycle;Signal;HPM_P1;HPM_P2
2023/06/16 00:01:13;;;;;;;0.40;0.40;;;22.00;54.10;;;22.48;38.28;94887.88;5012948;28;20199;-41
2023/06/16 00:03:41;;;;;;;0.47;0.47;;;22.00;54.20;;;22.44;38.34;94879.59;5012716;28;20190;-42
2023/06/16 00:06:13;;;;;;;0.45;0.45;;;21.90;54.10;;;22.45;38.61;94885.72;5012345;28;20254;-43
2023/06/16 00:08:54;;;;;;;0.40;0.40;;;22.00;54.30;;;22.41;38.42;94885.50;5012503;28;20274;-42
2023/06/16 00:11:22;;;;;;;0.40;0.40;;;21.90;54.20;;;22.38;38.83;94884.13;5012600;28;20606;-42
2023/06/16 00:13:50;;;;;;;0.43;0.43;;;21.90;54.20;;;22.38;38.81;94889.47;5012522;28;20204;-42
2023/06/16 00:16:22;;;;;;;0.50;0.50;;;21.90;54.30;;;22.37;38.74;94881.69;5012449;28;20249;-42
2023/06/16 00:18:57;;;;;;;0.40;0.40;;;21.90;54.40;;;22.36;38.42;94880.09;5012452;28;20181;-42
2023/06/16 00:21:27;;;;;;;0.38;0.38;;;21.90;54.60;;;22.35;39.04;94881.16;5012649;28;20191;-44
2023/06/16 00:23:55;;;;;;;0.45;0.45;;;21.90;54.40;;;22.33;38.95;94886.78;5012231;28;20640;-42
2023/06/16 00:26:23;;;;;;;0.40;0.40;;;21.80;54.40;;;22.32;38.87;94884.38;5012503;28;20546;-43
2023/06/16 00:28:51;;;;;;;0.30;0.30;;;21.80;54.40;;;22.29;38.77;94883.03;5012307;28;20207;-44
2023/06/16 00:31:18;;;;;;;0.40;0.40;;;21.80;54.40;;;22.28;39.08;94880.66;5027448;28;20201;-44
2023/06/16 00:33:45;;;;;;;0.40;0.40;;;21.80;54.50;;;22.23;38.94;94871.53;5011852;28;20293;-45
2023/06/16 00:36:15;;;;;;;0.50;0.50;;;21.80;54.40;;;22.21;38.93;94876.34;5011088;28;20236;-43
2023/06/16 00:38:42;;;;;;;0.32;0.32;;;21.80;54.40;;;22.19;38.87;94878.50;5011040;28;20205;-43
2023/06/16 00:41:09;;;;;;;0.40;0.40;;;21.80;54.50;;;22.16;38.62;94881.69;5012470;28;20511;-43
2023/06/16 00:43:36;;;;;;;0.40;0.40;;;21.70;54.50;;;22.16;38.72;94876.34;5011758;28;20223;-45
2023/06/16 00:46:05;;;;;;;0.32;0.32;;;21.70;54.60;;;22.14;38.82;94875.84;5010952;28;20251;-44
2023/06/16 00:48:32;;;;;;;0.40;0.40;;;21.70;54.60;;;22.13;39.27;94876.06;5011756;28;20218;-43
2023/06/16 00:51:03;;;;;;;0.47;0.47;;;21.70;54.80;;;22.10;39.10;94871.28;5014783;28;20286;-44
2023/06/16 00:53:31;;;;;;;0.40;0.40;;;21.70;54.90;;;22.09;38.86;94867.00;5015754;28;20265;-43
2023/06/16 00:55:59;;;;;;;0.38;0.38;;;21.70;54.90;;;22.06;39.52;94866.44;5014569;28;20210;-43
2023/06/16 00:58:27;;;;;;;0.50;0.50;;;21.70;54.90;;;22.06;39.34;94873.69;5015302;28;20195;-48
2023/06/16 01:00:54;;;;;;;0.40;0.40;;;21.60;54.90;;;22.03;39.30;94869.66;5014266;28;20230;-47
2023/06/16 01:03:22;;;;;;;0.40;0.40;;;21.60;54.90;;;22.02;39.40;94868.06;5015347;28;20629;-43
2023/06/16 01:05:54;;;;;;;0.47;0.47;;;21.60;55.00;;;22.00;39.22;94866.72;5015592;28;20199;-46
2023/06/16 01:08:32;;;;;;;0.43;0.43;;;21.60;55.10;;;21.98;39.41;94869.63;5015140;28;20231;-43
2023/06/16 01:11:15;;;;;;;0.50;0.50;;;21.60;55.30;;;21.96;39.50;94866.44;5030504;28;20289;-45
2023/06/16 01:13:52;;;;;;;0.47;0.47;;;21.60;55.40;;;21.95;39.86;94874.72;5015236;28;20601;-43
2023/06/16 01:16:25;;;;;;;0.38;0.38;;;21.60;55.30;;;21.92;39.92;94876.03;5014830;28;20187;-44
2023/06/16 01:18:54;;;;;;;0.40;0.40;;;21.60;55.40;;;21.91;39.44;94871.78;5015467;28;20585;-46
2023/06/16 01:21:43;;;;;;;0.40;0.40;;;21.60;55.40;;;21.88;39.94;94865.09;5014256;28;20236;-43
2023/06/16 01:24:23;;;;;;;0.50;0.50;;;21.50;55.30;;;21.86;39.88;94863.75;5014055;28;20203;-44
2023/06/16 01:26:54;;;;;;;0.40;0.40;;;21.50;55.60;;;21.84;40.25;94860.56;5013641;28;20284;-43
2023/06/16 01:29:24;;;;;;;0.40;0.40;;;21.50;55.40;;;21.83;39.65;94858.97;5014450;28;20510;-46
2023/06/16 01:31:57;;;;;;;0.40;0.40;;;21.50;55.60;;;21.81;40.17;94856.53;5015172;28;20225;-44
2023/06/16 01:34:26;;;;;;;0.40;0.40;;;21.50;55.70;;;21.81;40.20;94855.75;5013671;28;20283;-48
2023/06/16 01:36:56;;;;;;;0.40;0.40;;;21.50;55.70;;;21.80;40.08;94852.28;5013519;28;20236;-46
2023/06/16 01:39:28;;;;;;;0.40;0.40;;;21.50;55.80;;;21.78;40.42;94856.28;4997842;28;20202;-47
2023/06/16 01:41:58;;;;;;;0.50;0.50;;;21.50;55.80;;;21.75;40.36;94853.06;5014583;28;20242;-46
2023/06/16 01:44:27;;;;;;;0.40;0.40;;;21.50;55.90;;;21.75;40.45;94857.59;5014250;28;20258;-43
2023/06/16 01:46:56;;;;;;;0.30;0.30;;;21.40;55.90;;;21.74;40.42;94846.13;5013521;28;20383;-42
2023/06/16 01:49:24;;;;;;;0.32;0.32;;;21.40;55.90;;;21.73;40.39;94843.72;5013262;28;20270;-42
2023/06/16 01:51:51;;;;;;;0.40;0.40;;;21.40;56.00;;;21.72;40.34;94848.25;5014410;28;20212;-42
2023/06/16 01:54:18;;;;;;;0.40;0.40;;;21.40;56.00;;;21.70;40.24;94845.06;5014487;28;20642;-43
2023/06/16 01:56:45;;;;;;;0.40;0.40;;;21.40;56.10;;;21.70;40.31;94845.06;5014855;28;20278;-42
2023/06/16 01:59:12;;;;;;;0.47;0.47;;;21.40;56.10;;;21.68;40.52;94841.84;5029731;28;20280;-41
2023/06/16 02:01:50;;;;;;;0.50;0.50;;;21.40;57.40;;;21.66;40.32;94840.50;5013926;28;20550;-41
2023/06/16 02:04:23;;;;;;;0.40;0.40;;;21.40;56.40;;;21.67;40.92;94847.44;5014544;28;20199;-41
2023/06/16 02:07:25;;;;;;;0.40;0.40;;;21.40;56.50;;;21.63;40.76;94841.00;5014272;28;20204;-42
2023/06/16 02:09:53;;;;;;;0.40;0.40;;;21.30;56.30;;;21.63;41.04;94843.69;4947359;28;20209;-41
2023/06/16 02:12:21;;;;;;;0.40;0.40;;;21.40;56.40;;;21.63;40.61;94844.50;5013094;28;20201;-41
2023/06/16 02:14:50;;;;;;;0.30;0.30;;;21.40;56.50;;;21.62;40.56;94842.88;5013175;28;20292;-43
2023/06/16 02:17:17;;;;;;;0.40;0.40;;;21.40;56.50;;;21.63;40.84;94843.69;5029530;28;20274;-41
2023/06/16 02:19:44;;;;;;;0.40;0.40;;;21.30;56.50;;;21.62;41.13;94834.88;5013868;28;20229;-41
2023/06/16 02:22:12;;;;;;;0.40;0.40;;;21.30;56.60;;;21.61;41.04;94838.59;5013798;28;20280;-43
2023/06/16 02:24:39;;;;;;;0.50;0.50;;;21.30;56.60;;;21.62;40.72;94839.41;5014094;28;20205;-44
2023/06/16 02:27:06;;;;;;;0.40;0.40;;;21.30;56.70;;;21.61;40.89;94841.28;5013553;28;20190;-42
2023/06/16 02:29:33;;;;;;;0.40;0.40;;;21.30;56.70;;;21.61;41.29;94843.16;5013780;28;20201;-43
2023/06/16 02:32:00;;;;;;;0.40;0.40;;;21.30;56.80;;;21.59;40.92;94838.88;5013909;28;20268;-43
2023/06/16 02:34:27;;;;;;;0.47;0.47;;;21.30;56.80;;;21.58;40.98;94839.13;5013974;28;20227;-43
2023/06/16 02:36:56;;;;;;;0.40;0.40;;;21.30;56.90;;;21.56;40.99;94839.41;5012545;28;20543;-45
2023/06/16 02:39:23;;;;;;;0.40;0.40;;;21.30;56.90;;;21.55;41.43;94843.09;5013004;28;20242;-43
2023/06/16 02:41:50;;;;;;;0.40;0.40;;;21.30;56.90;;;21.54;41.00;94838.81;5012647;28;20247;-42
2023/06/16 02:44:18;;;;;;;0.35;0.35;;;21.30;56.90;;;21.53;41.18;94839.09;5029052;28;20266;-41
2023/06/16 02:46:45;;;;;;;0.40;0.40;;;21.30;56.90;;;21.51;41.35;94835.91;5013473;28;20204;-42
2023/06/16 02:49:12;;;;;;;0.47;0.47;;;21.30;56.90;;;21.51;41.15;94838.56;5012339;28;20221;-42
2023/06/16 02:51:40;;;;;;;0.40;0.40;;;21.30;57.00;;;21.48;41.56;94837.19;5028902;28;20204;-42
2023/06/16 02:54:09;;;;;;;0.47;0.47;;;21.20;56.90;;;21.47;41.32;94848.97;5013430;28;20193;-42
2023/06/16 02:56:36;;;;;;;0.40;0.40;;;21.20;56.90;;;21.45;41.42;94843.06;5012380;28;20701;-45
2023/06/16 02:59:03;;;;;;;0.40;0.40;;;21.20;56.90;;;21.42;41.66;94846.25;5013289;28;20193;-42
2023/06/16 03:01:32;;;;;;;0.40;0.40;;;21.20;57.00;;;21.41;41.43;94841.97;5028741;28;20524;-42
2023/06/16 03:04:05;;;;;;;0.40;0.40;;;21.20;57.00;;;21.38;41.54;94845.19;5012755;28;20200;-42
2023/06/16 03:06:57;;;;;;;0.40;0.40;;;21.20;56.90;;;21.34;41.67;94852.13;5012364;28;20288;-41
2023/06/16 03:09:30;;;;;;;0.50;0.50;;;21.10;56.90;;;21.32;41.39;94846.22;5012215;28;20221;-43
2023/06/16 03:11:59;;;;;;;0.40;0.40;;;21.10;56.90;;;21.30;41.22;94851.84;5028714;28;20193;-43
2023/06/16 03:14:28;;;;;;;0.45;0.45;;;21.10;56.90;;;21.28;41.52;94848.63;5012352;28;20200;-43
2023/06/16 03:17:05;;;;;;;0.45;0.45;;;21.10;57.10;;;21.26;41.81;94851.56;5012408;28;20250;-42
2023/06/16 03:19:32;;;;;;;0.50;0.50;;;21.10;57.10;;;21.25;41.31;94846.47;5012013;28;20208;-44
2023/06/16 03:22:00;;;;;;;0.47;0.47;;;21.00;57.00;;;21.23;41.62;94846.72;5028342;28;20208;-43
2023/06/16 03:24:37;;;;;;;0.40;0.40;;;21.00;57.00;;;21.22;41.37;94849.66;5012055;28;20206;-44
2023/06/16 03:27:06;;;;;;;0.60;0.60;;;21.00;57.10;;;21.20;41.61;94846.44;5011842;28;20200;-47
2023/06/16 03:29:46;;;;;;;0.30;0.30;;;21.00;57.00;;;21.16;41.73;94846.16;5028836;28;20204;-44
2023/06/16 03:32:13;;;;;;;0.50;0.50;;;21.00;57.10;;;21.15;42.02;94843.75;5013199;28;20275;-43
2023/06/16 03:34:41;;;;;;;0.40;0.40;;;21.00;57.20;;;21.13;41.91;94832.53;5028318;28;20193;-40
2023/06/16 03:37:08;;;;;;;0.40;0.40;;;21.00;57.30;;;21.12;41.54;94842.41;5028085;28;20231;-41
2023/06/16 03:39:38;;;;;;;0.60;0.60;;;20.90;57.20;;;21.10;41.95;94844.53;5011782;28;20225;-41
2023/06/16 03:42:06;;;;;;;0.40;0.40;;;20.90;57.20;;;21.08;41.97;94844.81;5011951;28;20220;-40
2023/06/16 03:44:33;;;;;;;0.40;0.40;;;20.90;57.30;;;21.07;41.77;94847.75;5028151;28;20204;-40
2023/06/16 03:47:00;;;;;;;0.40;0.40;;;20.90;57.40;;;21.06;42.16;94844.25;5011698;28;20201;-41
2023/06/16 03:49:30;;;;;;;0.40;0.40;;;20.80;57.30;;;21.05;42.19;94849.84;5027925;28;20295;-41
2023/06/16 03:51:58;;;;;;;0.40;0.40;;;20.80;57.40;;;21.04;41.64;94856.25;5011620;28;20196;-41
2023/06/16 03:54:27;;;;;;;0.40;0.40;;;20.80;57.40;;;21.03;41.99;94838.63;5011547;28;20653;-41
2023/06/16 03:56:55;;;;;;;0.45;0.45;;;20.80;57.60;;;21.03;42.25;94844.78;5012786;28;20225;-40
2023/06/16 03:59:23;;;;;;;0.47;0.47;;;20.80;57.60;;;21.03;42.12;94846.63;4995343;28;20205;-41
2023/06/16 04:01:51;;;;;;;0.50;0.50;;;20.80;57.60;;;21.02;42.21;94842.34;5011442;28;20727;-41
2023/06/16 04:04:19;;;;;;;0.50;0.50;;;20.80;57.70;;;21.00;41.86;94847.97;5011466;28;20212;-40
2023/06/16 04:06:48;;;;;;;0.30;0.30;;;20.80;57.80;;;20.99;42.38;94846.34;5027814;28;20202;-41
2023/06/16 04:09:15;;;;;;;0.40;0.40;;;20.80;57.80;;;20.98;42.62;94844.75;5012068;28;20676;-42
2023/06/16 04:11:43;;;;;;;0.52;0.52;;;20.70;57.90;;;20.98;42.16;94847.41;5011624;28;20208;-42
2023/06/16 04:14:12;;;;;;;0.40;0.40;;;20.70;57.90;;;21.00;42.16;94855.16;5097261;28;20545;-40
2023/06/16 04:16:42;;;;;;;0.40;0.40;;;20.70;58.00;;;20.99;42.22;94850.88;5011530;28;20532;-42
2023/06/16 04:19:11;;;;;;;0.40;0.40;;;20.70;58.00;;;21.00;42.23;94849.84;5011118;28;20212;-41
2023/06/16 04:21:41;;;;;;;0.40;0.40;;;20.70;58.10;;;20.99;42.67;94858.88;5027721;28;20230;-41
2023/06/16 04:24:10;;;;;;;0.40;0.40;;;20.70;58.10;;;20.97;42.83;94853.81;5027977;28;20332;-42
2023/06/16 04:26:41;;;;;;;0.40;0.40;;;20.70;58.20;;;20.96;42.31;94854.88;5014700;28;20559;-42
2023/06/16 04:29:14;;;;;;;0.40;0.40;;;20.70;58.20;;;20.97;42.71;94853.00;5031056;28;20240;-41
2023/06/16 04:31:43;;;;;;;0.40;0.40;;;20.70;58.20;;;20.94;42.70;94857.00;5014697;28;20583;-40
2023/06/16 04:34:11;;;;;;;0.40;0.40;;;20.70;58.40;;;20.94;42.46;94854.31;5014632;28;20203;-42
2023/06/16 04:36:44;;;;;;;0.40;0.40;;;20.70;58.40;;;20.94;42.71;94857.00;5015547;28;20195;-42
2023/06/16 04:39:27;;;;;;;0.38;0.38;;;20.70;58.40;;;20.92;42.60;94854.59;5030964;28;20288;-42
2023/06/16 04:41:56;;;;;;;0.40;0.40;;;20.70;58.40;;;20.92;42.74;94853.78;5014359;28;20587;-41
2023/06/16 04:44:25;;;;;;;0.40;0.40;;;20.70;58.50;;;20.92;42.91;94848.44;5031560;28;20226;-41
2023/06/16 04:46:52;;;;;;;0.40;0.40;;;20.70;58.60;;;20.91;42.68;94850.31;5015631;28;20261;-41
2023/06/16 04:49:21;;;;;;;0.40;0.40;;;20.70;58.60;;;20.89;42.92;94849.75;5014408;28;20289;-41
2023/06/16 04:51:48;;;;;;;0.40;0.40;;;20.70;58.70;;;20.89;42.99;94849.75;5014713;28;20260;-40
2023/06/16 04:54:18;;;;;;;0.40;0.40;;;20.70;58.60;;;20.89;42.71;94849.75;5015404;28;20240;-45
2023/06/16 04:56:46;;;;;;;0.40;0.40;;;20.70;59.90;;;20.90;42.87;94847.91;4998515;28;20549;-42
2023/06/16 04:59:13;;;;;;;0.43;0.43;;;20.70;58.80;;;20.88;43.49;94848.16;5014108;28;20555;-42
2023/06/16 05:01:41;;;;;;;0.40;0.40;;;20.70;58.80;;;20.90;43.33;94845.25;5015242;28;20196;-44
2023/06/16 05:04:08;;;;;;;0.40;0.40;;;20.70;58.90;;;20.89;43.07;94841.75;5014324;28;20553;-41
2023/06/16 05:06:36;;;;;;;0.45;0.45;;;20.70;58.90;;;20.89;43.07;94841.75;5014110;28;20215;-45
2023/06/16 05:09:05;;;;;;;0.47;0.47;;;20.70;57.80;;;20.90;43.52;94848.72;5013841;28;20655;-42
2023/06/16 05:11:32;;;;;;;0.40;0.40;;;20.70;58.90;;;20.91;43.18;94841.50;5015237;28;20236;-47
2023/06/16 05:14:00;;;;;;;0.40;0.40;;;20.70;60.20;;;20.91;43.19;94842.31;5014178;28;20215;-42
2023/06/16 05:16:28;;;;;;;0.50;0.50;;;20.70;59.10;;;20.92;43.51;94841.25;5013975;28;20200;-43
2023/06/16 05:18:56;;;;;;;0.30;0.30;;;20.70;59.10;;;20.92;43.60;94840.44;5013904;28;20197;-41
2023/06/16 05:21:25;;;;;;;0.40;0.40;;;20.70;59.20;;;20.93;43.70;94837.53;5013873;28;20205;-43
2023/06/16 05:23:57;;;;;;;0.50;0.50;;;20.70;59.20;;;20.93;43.25;94840.22;5030604;28;20244;-43
2023/06/16 05:26:25;;;;;;;0.40;0.40;;;20.70;59.30;;;20.95;43.71;94842.59;5014162;28;20219;-40
2023/06/16 05:28:52;;;;;;;0.40;0.40;;;20.70;59.30;;;20.97;43.62;94848.50;5030031;28;20251;-41
2023/06/16 05:31:22;;;;;;;0.40;0.40;;;20.80;59.40;;;20.98;43.69;94846.63;5030224;28;20205;-41
2023/06/16 05:33:50;;;;;;;0.50;0.50;;;20.80;59.50;;;20.98;43.85;94849.28;5014580;28;20188;-40
2023/06/16 05:36:17;;;;;;;0.32;0.32;;;20.80;59.50;;;20.99;43.68;94853.56;5013100;28;20204;-39
2023/06/16 05:38:45;;;;;;;0.40;0.40;;;20.80;60.60;;;20.99;43.53;94846.34;5013591;28;20554;-40
2023/06/16 05:41:12;;;;;;;0.40;0.40;;;20.80;59.60;;;21.01;43.76;94846.09;5013808;28;20209;-39
2023/06/16 05:43:43;;;;;;;0.40;0.40;;;20.80;59.60;;;21.02;43.50;94853.84;5013618;28;20216;-39
2023/06/16 05:46:11;;;;;;;0.40;0.40;;;20.80;59.70;;;21.03;44.09;94851.97;5013542;28;20295;-41
2023/06/16 05:48:38;;;;;;;0.50;0.50;;;20.80;59.70;;;21.03;43.83;94851.97;5013482;28;20663;-40
2023/06/16 05:51:08;;;;;;;0.40;0.40;;;20.80;60.60;;;21.04;44.07;94846.38;4998228;28;20200;-41
2023/06/16 05:53:35;;;;;;;0.43;0.43;;;20.80;59.70;;;21.04;43.71;94853.56;5014634;28;20200;-41
2023/06/16 05:56:03;;;;;;;0.50;0.50;;;20.80;59.70;;;21.08;44.10;94857.31;5013335;28;20601;-41
2023/06/16 05:58:35;;;;;;;0.40;0.40;;;20.90;59.80;;;21.08;44.14;94854.66;4997426;28;20330;-41
2023/06/16 06:01:04;;;;;;;0.40;0.40;;;20.90;59.80;;;21.09;43.76;94857.09;5029798;28;20247;-41
2023/06/16 06:03:32;;;;;;;0.47;0.47;;;20.90;59.90;;;21.10;44.22;94861.34;5014084;28;20208;-41
2023/06/16 06:06:01;;;;;;;0.30;0.30;;;20.90;59.90;;;21.10;44.22;94866.69;5029919;28;20197;-41
2023/06/16 06:08:28;;;;;;;0.40;0.40;;;20.90;59.90;;;21.11;44.05;94859.47;5013077;28;20736;-41
2023/06/16 06:10:59;;;;;;;0.40;0.40;;;20.90;59.90;;;21.14;43.79;94861.63;5029406;28;20205;-41
2023/06/16 06:13:28;;;;;;;0.32;0.32;;;21.00;60.00;;;21.14;43.87;94868.81;5013177;28;20221;-42
2023/06/16 06:15:55;;;;;;;0.40;0.40;;;21.00;60.00;;;21.15;43.82;94870.44;5013064;28;20200;-41
2023/06/16 06:18:22;;;;;;;0.40;0.40;;;21.00;60.00;;;21.16;43.99;94872.03;5013219;28;20525;-42
2023/06/16 06:20:50;;;;;;;0.38;0.38;;;21.00;60.00;;;21.18;44.34;94869.91;5029451;28;20589;-44
2023/06/16 06:23:18;;;;;;;0.43;0.43;;;21.00;60.00;;;21.19;44.00;94871.50;5013312;28;20251;-42
2023/06/16 06:25:47;;;;;;;0.40;0.40;;;21.00;60.00;;;21.20;44.25;94871.28;5013196;28;20212;-41
2023/06/16 06:28:18;;;;;;;0.38;0.38;;;21.00;60.00;;;21.21;44.00;94870.19;5012839;28;20204;-42
2023/06/16 06:30:46;;;;;;;0.40;0.40;;;21.00;60.00;;;21.22;44.30;94873.66;5014018;28;20197;-42
2023/06/16 06:33:13;;;;;;;0.40;0.40;;;21.00;60.10;;;21.25;44.33;94879.28;5012678;28;20201;-42
2023/06/16 06:35:40;;;;;;;0.40;0.40;;;21.00;60.10;;;21.27;44.32;94873.69;5013245;28;20230;-42
2023/06/16 06:38:07;;;;;;;0.40;0.40;;;21.10;60.20;;;21.28;44.34;94875.28;5012765;28;20288;-43
2023/06/16 06:40:36;;;;;;;0.40;0.40;;;21.10;60.20;;;21.32;44.00;94873.69;5012644;28;20277;-42
2023/06/16 06:43:05;;;;;;;0.40;0.40;;;21.10;60.20;;;21.34;44.45;94874.25;5014371;28;20193;-43
2023/06/16 06:45:49;;;;;;;0.40;0.40;;;21.10;60.20;;;21.35;44.31;94878.53;5083780;28;20243;-45
2023/06/16 06:48:19;;;;;;;0.30;0.30;;;21.10;60.20;;;21.38;44.00;94880.66;5012052;28;20189;-46
2023/06/16 06:50:50;;;;;;;0.32;0.32;;;21.20;60.20;;;21.39;44.18;94879.59;5012563;28;20282;-48
2023/06/16 06:53:17;;;;;;;0.30;0.30;;;21.20;60.20;;;21.43;44.20;94875.38;5013439;28;20252;-44
2023/06/16 06:55:46;;;;;;;0.40;0.40;;;21.20;60.30;;;21.46;44.51;94878.56;5013608;28;20612;-47
2023/06/16 06:58:14;;;;;;;0.40;0.40;;;21.30;60.30;;;21.46;44.43;94882.03;5012175;28;20697;-43
2023/06/16 07:00:41;;;;;;;0.30;0.30;;;21.30;60.30;;;21.49;44.48;94881.50;5013877;28;20254;-44
2023/06/16 07:03:08;;;;;;;0.40;0.40;;;21.30;60.30;;;21.51;44.48;94884.72;5013517;28;20199;-45
2023/06/16 07:05:35;;;;;;;0.40;0.40;;;21.30;61.20;;;21.52;44.16;94886.34;5013108;28;20622;-47
2023/06/16 07:08:03;;;;;;;0.40;0.40;;;21.30;60.20;;;21.54;44.16;94892.19;5013250;28;20647;-42
2023/06/16 07:10:32;;;;;;;0.40;0.40;;;21.30;60.20;;;21.56;44.17;94891.94;5013327;28;20286;-42
2023/06/16 07:13:00;;;;;;;0.40;0.40;;;21.30;60.10;;;21.57;44.55;94893.59;5012271;28;20660;-42
2023/06/16 07:15:27;;;;;;;0.38;0.38;;;21.40;60.10;;;21.59;44.26;94892.25;5012908;28;20746;-42
2023/06/16 07:17:54;;;;;;;0.43;0.43;;;21.40;60.10;;;21.62;44.46;94888.25;5028750;28;20605;-42
2023/06/16 07:20:21;;;;;;;0.40;0.40;;;21.40;60.20;;;21.64;44.06;94888.00;5013061;28;20209;-42
2023/06/16 07:22:48;;;;;;;0.30;0.30;;;21.40;60.10;;;21.66;44.34;94891.22;5012920;28;20284;-41
2023/06/16 07:25:16;;;;;;;0.30;0.30;;;21.40;60.10;;;21.67;43.93;94884.81;5012794;28;20209;-42
2023/06/16 07:27:43;;;;;;;0.40;0.40;;;21.50;60.10;;;21.69;44.21;94885.34;5012852;28;20207;-42
2023/06/16 07:30:11;;;;;;;0.40;0.40;;;21.50;60.10;;;21.70;43.64;94885.09;5013153;28;20245;-41
2023/06/16 07:32:41;;;;;;;0.38;0.38;;;21.50;60.10;;;21.72;43.78;94874.94;5012862;28;20202;-42
2023/06/16 07:35:08;;;;;;;0.40;0.40;;;21.50;60.10;;;21.74;43.99;94880.81;5012643;28;20642;-42
2023/06/16 07:37:35;;;;;;;0.40;0.40;;;21.50;61.00;;;21.77;44.02;94881.38;5013314;28;20195;-42
2023/06/16 07:40:07;;;;;;;0.40;0.40;;;21.60;60.10;;;21.79;44.04;94887.22;5013519;28;20236;-41
2023/06/16 07:42:34;;;;;;;0.40;0.40;;;21.60;60.10;;;21.82;44.10;94878.72;5013051;28;20230;-43
2023/06/16 07:45:01;;;;;;;0.40;0.40;;;21.60;60.10;;;21.85;43.74;94880.84;5012552;28;20203;-41
2023/06/16 07:47:29;;;;;;;0.30;0.30;;;21.60;60.10;;;21.88;44.06;94888.34;5012648;28;20199;-43
2023/06/16 07:49:56;;;;;;;0.30;0.30;;;21.70;60.20;;;21.89;43.78;94885.38;5012772;28;20318;-42
2023/06/16 07:52:23;;;;;;;0.40;0.40;;;21.60;60.00;;;21.91;43.76;94877.13;5012789;28;20570;-42
2023/06/16 07:54:50;;;;;;;0.40;0.40;;;21.70;60.10;;;21.93;44.12;94880.31;5012594;28;20191;-42
2023/06/16 07:57:18;;;;;;;0.32;0.32;;;21.70;60.00;;;21.95;43.82;94882.72;5012857;28;20278;-41
2023/06/16 07:59:45;;;;;;;0.40;0.40;;;21.70;60.00;;;21.97;44.07;94876.06;5012444;28;20200;-42
2023/06/16 08:02:12;;;;;;;0.30;0.30;;;21.80;60.00;;;22.00;43.75;94877.41;5011831;28;20259;-42
2023/06/16 08:04:39;;;;;;;0.38;0.38;;;21.80;60.00;;;22.02;43.81;94869.91;5011410;28;20279;-42
2023/06/16 08:07:07;;;;;;;0.30;0.30;;;21.80;60.00;;;22.03;44.01;94867.00;5012395;28;20569;-44
2023/06/16 08:09:34;;;;;;;0.40;0.40;;;21.80;60.00;;;22.07;43.76;94870.72;5012496;28;20253;-43
2023/06/16 08:12:02;;;;;;;0.30;0.30;;;21.80;59.90;;;22.09;43.56;94864.31;5012293;28;20189;-43
2023/06/16 08:14:31;;;;;;;0.30;0.30;;;21.80;59.80;;;22.11;43.99;94864.88;5013052;28;20281;-42
2023/06/16 08:16:58;;;;;;;0.30;0.30;;;21.90;59.90;;;22.13;43.59;94862.72;5027707;28;20302;-44
2023/06/16 08:19:25;;;;;;;0.40;0.40;;;21.90;59.80;;;22.15;43.44;94861.38;5012479;28;20209;-42
2023/06/16 08:21:52;;;;;;;0.40;0.40;;;21.90;59.90;;;22.18;43.85;94868.06;5011168;28;20221;-46
2023/06/16 08:24:19;;;;;;;0.30;0.30;;;21.90;59.70;;;22.19;44.01;94865.16;5012256;28;20197;-42
2023/06/16 08:26:47;;;;;;;0.40;0.40;;;22.00;59.90;;;22.23;43.66;94866.19;5012154;28;20254;-43
2023/06/16 08:29:14;;;;;;;0.40;0.40;;;22.00;59.70;;;22.26;43.63;94859.53;5012031;28;20212;-43
2023/06/16 08:31:41;;;;;;;0.30;0.30;;;22.00;59.60;;;22.28;43.46;94859.28;5011245;28;20192;-43
2023/06/16 08:34:08;;;;;;;0.30;0.30;;;22.00;59.50;;;22.30;43.47;94859.78;5012317;28;20200;-47
2023/06/16 08:36:36;;;;;;;0.30;0.30;;;22.00;59.50;;;22.33;43.51;94859.28;5012111;28;20272;-42
2023/06/16 08:39:05;;;;;;;0.38;0.38;;;22.10;59.60;;;22.36;43.27;94858.72;5011965;28;20576;-42
2023/06/16 08:41:36;;;;;;;0.40;0.40;;;22.10;60.50;;;22.39;43.14;94859.00;5011143;28;20193;-41
2023/06/16 08:44:07;;;;;;;0.40;0.40;;;22.20;59.50;;;22.42;43.24;94855.00;5027997;28;20570;-42
2023/06/16 08:46:35;;;;;;;0.30;0.30;;;22.20;59.50;;;22.43;43.20;94853.16;5011793;28;20186;-43
2023/06/16 08:49:06;;;;;;;0.40;0.40;;;22.20;59.90;;;22.46;43.50;94847.25;5011811;28;20227;-41
2023/06/16 08:51:34;;;;;;;0.30;0.30;;;22.20;59.30;;;22.48;43.31;94843.25;5012302;28;20213;-43
2023/06/16 08:54:06;;;;;;;0.30;0.30;;;22.30;59.40;;;22.50;43.10;94857.16;5010976;28;20292;-42
2023/06/16 08:56:33;;;;;;;0.30;0.30;;;22.30;59.30;;;22.53;42.90;94850.47;5027454;28;20197;-44
2023/06/16 08:59:03;;;;;;;0.30;0.30;;;22.30;59.30;;;22.56;42.87;94855.28;5011309;28;20222;-44
2023/06/16 09:01:33;;;;;;;0.30;0.30;;;22.30;59.30;;;22.58;42.99;94850.44;5011888;28;20205;-45
2023/06/16 09:04:01;;;;;;;0.30;0.30;;;22.30;59.20;;;22.62;43.08;94846.19;5012029;28;20193;-42
2023/06/16 09:06:29;;;;;;;0.40;0.40;;;22.40;59.30;;;22.64;43.23;94854.75;5011576;28;20282;-42
2023/06/16 09:08:56;;;;;;;0.30;0.30;;;22.40;59.20;;;22.68;43.16;94836.28;5010737;28;20196;-41
2023/06/16 09:11:24;;;;;;;0.30;0.30;;;22.40;59.20;;;22.71;42.83;94841.06;5013044;28;20681;-42
2023/06/16 09:13:52;;;;;;;0.30;0.30;;;22.40;59.00;;;22.73;42.69;94832.78;5014981;28;20199;-43
2023/06/16 09:16:23;;;;;;;0.32;0.32;;;22.50;58.90;;;22.76;42.79;94834.94;5014924;28;20186;-43
2023/06/16 09:18:50;;;;;;;0.30;0.30;;;22.50;58.80;;;22.78;42.46;94840.81;5014664;28;20231;-42
2023/06/16 09:21:22;;;;;;;0.30;0.30;;;22.50;58.70;;;22.80;42.34;94833.31;5015149;28;20226;-42
2023/06/16 09:23:58;;;;;;;0.40;0.40;;;22.50;58.60;;;22.83;42.61;94832.78;5014713;28;20236;-42
2023/06/16 09:26:30;;;;;;;0.30;0.30;;;22.60;58.60;;;22.85;42.71;94834.09;5015080;28;20247;-42
2023/06/16 09:28:57;;;;;;;0.30;0.30;;;22.60;58.50;;;22.89;42.74;94833.53;5014445;28;20188;-42
2023/06/16 09:31:28;;;;;;;0.38;0.38;;;22.60;58.50;;;22.91;42.16;94826.06;5014986;28;20276;-43
2023/06/16 09:34:09;;;;;;;0.30;0.30;;;22.60;58.50;;;22.93;42.31;94829.28;5015101;28;20216;-43
2023/06/16 09:36:37;;;;;;;0.30;0.30;;;22.70;58.30;;;22.96;42.11;94828.72;5015223;28;20185;-42
2023/06/16 09:39:24;;;;;;;0.30;0.30;;;22.70;58.40;;;22.96;42.46;94820.69;5014908;28;20205;-43
2023/06/16 09:41:53;;;;;;;0.40;0.40;;;22.70;58.20;;;22.99;42.19;94823.63;5014847;28;20177;-40
2023/06/16 09:44:25;;;;;;;0.30;0.30;;;22.70;58.30;;;23.01;42.14;94824.16;5013898;28;20199;-41
2023/06/16 09:46:53;;;;;;;0.30;0.30;;;22.70;58.10;;;23.03;42.22;94816.66;5014895;28;20207;-42
2023/06/16 09:49:23;;;;;;;0.40;0.40;;;22.80;58.30;;;23.07;42.04;94816.94;5014723;28;20655;-40
2023/06/16 09:51:58;;;;;;;0.30;0.30;;;22.80;58.20;;;23.08;41.91;94831.88;5014331;28;20189;-41
2023/06/16 09:54:27;;;;;;;0.30;0.30;;;22.80;58.00;;;23.09;41.82;94822.78;5014551;28;20210;-41
2023/06/16 09:56:55;;;;;;;0.40;0.40;;;22.80;58.10;;;23.12;41.68;94824.94;5014615;28;20227;-41
2023/06/16 09:59:25;;;;;;;0.30;0.30;;;22.80;58.00;;;23.14;41.95;94820.13;5014299;28;20254;-42
2023/06/16 10:01:54;;;;;;;0.30;0.30;;;22.80;57.90;;;23.17;41.81;94814.22;5014335;28;20197;-42
2023/06/16 10:04:23;;;;;;;0.38;0.38;;;22.90;58.00;;;23.20;41.90;94807.53;5030178;28;20228;-41
2023/06/16 10:07:02;;;;;;;0.32;0.32;;;22.90;58.00;;;23.22;41.47;94810.72;5013291;28;20288;-44
2023/06/16 10:09:49;;;;;;;0.40;0.40;;;22.90;58.00;;;23.24;41.63;94797.88;5029689;28;20207;-41
2023/06/16 10:12:32;;;;;;;0.40;0.40;;;22.90;57.80;;;23.27;41.74;94808.03;5014411;28;20179;-41
2023/06/16 10:15:03;;;;;;;0.30;0.30;;;23.00;59.00;;;23.32;41.22;94810.69;5029686;28;20210;-45
2023/06/16 10:17:32;;;;;;;0.30;0.30;;;23.00;57.30;;;23.36;41.40;94807.47;5014533;28;20197;-40
2023/06/16 10:20:05;;;;;;;0.32;0.32;;;23.00;57.40;;;23.37;41.22;94807.19;5014475;28;20226;-41
2023/06/16 10:22:32;;;;;;;0.32;0.32;;;23.10;57.40;;;23.40;41.16;94813.84;5013839;28;20249;-41
2023/06/16 10:25:01;;;;;;;0.20;0.20;;;23.10;57.40;;;23.42;41.16;94819.75;5014496;28;20187;-40
2023/06/16 10:27:28;;;;;;;0.30;0.30;;;23.10;57.30;;;23.44;41.30;94820.28;5013740;28;20210;-42
2023/06/16 10:29:58;;;;;;;0.32;0.32;;;23.10;57.20;;;23.45;40.82;94817.31;5014289;28;20587;-41